createdAt,value
2022-09-28T00:00:41.873Z,99714.59
2022-09-28T00:03:09.234Z,99720.78
2022-09-28T00:05:35.748Z,99724.31
2022-09-28T00:08:02.181Z,99723.56
2022-09-28T00:10:28.693Z,99715.97
2022-09-28T00:12:58.566Z,99715.31
2022-09-28T00:15:25.073Z,99718.94
2022-09-28T00:17:51.525Z,99718.06
2022-09-28T00:20:19.375Z,99714.75
2022-09-28T00:22:45.872Z,99717.41
2022-09-28T00:25:12.396Z,99714.94
2022-09-28T00:27:38.833Z,99722.88
2022-09-28T00:30:06.102Z,99729.16
2022-09-28T00:32:32.575Z,99718.97
2022-09-28T00:34:59.124Z,99723.31
2022-09-28T00:37:25.552Z,99726.81
2022-09-28T00:39:52.046Z,99711.38
2022-09-28T00:42:24.005Z,99712.38
2022-09-28T00:44:57.206Z,99717.66
2022-09-28T00:47:42.459Z,99709.97
2022-09-28T00:50:33.620Z,99709.31
2022-09-28T00:53:11.820Z,99710.41
2022-09-28T00:56:04.854Z,99705.41
2022-09-28T00:58:34.661Z,99703.81
2022-09-28T01:01:01.177Z,99703.09
2022-09-28T01:03:28.792Z,99709.09
2022-09-28T01:05:58.337Z,99700.50
2022-09-28T01:08:30.223Z,99702.28
2022-09-28T01:10:59.170Z,99695.34
2022-09-28T01:13:26.358Z,99698.91
2022-09-28T01:16:23.966Z,99703.16
2022-09-28T01:19:01.224Z,99700.50
2022-09-28T01:21:27.688Z,99694.41
2022-09-28T01:24:13.152Z,99695.34
2022-09-28T01:26:50.241Z,99695.41
2022-09-28T01:29:35.987Z,99687.63
2022-09-28T01:32:14.989Z,99685.97
2022-09-28T01:34:47.254Z,99691.22
2022-09-28T01:37:16.585Z,99699.00
2022-09-28T01:39:47.414Z,99696.50
2022-09-28T01:42:27.536Z,99699.09
2022-09-28T01:44:59.784Z,99696.69
2022-09-28T01:47:30.911Z,99694.19
2022-09-28T01:50:17.655Z,99690.78
2022-09-28T01:52:53.955Z,99692.66
2022-09-28T01:55:37.325Z,99699.78
2022-09-28T01:58:09.411Z,99693.94
2022-09-28T02:00:41.777Z,99692.44
2022-09-28T02:03:20.165Z,99696.97
2022-09-28T02:05:57.168Z,99696.88
2022-09-28T02:08:31.567Z,99685.78
2022-09-28T02:11:01.893Z,99688.44
2022-09-28T02:13:50.857Z,99687.78
2022-09-28T02:16:25.499Z,99684.31
2022-09-28T02:18:52.400Z,99690.38
2022-09-28T02:21:32.360Z,99689.53
2022-09-28T02:24:07.512Z,99693.88
2022-09-28T02:26:41.837Z,99687.13
2022-09-28T02:29:08.385Z,99695.72
2022-09-28T02:31:35.568Z,99687.28
2022-09-28T02:34:02.285Z,99690.81
2022-09-28T02:36:29.909Z,99688.22
2022-09-28T02:38:58.304Z,99686.56
2022-09-28T02:41:46.175Z,99691.81
2022-09-28T02:44:34.424Z,99698.81
2022-09-28T02:47:14.944Z,99695.59
2022-09-28T02:50:03.313Z,99698.16
2022-09-28T02:53:05.143Z,99701.56
2022-09-28T02:55:47.065Z,99700.59
2022-09-28T02:58:25.139Z,99710.84
2022-09-28T03:01:14.282Z,99704.81
2022-09-28T03:03:53.153Z,99707.47
2022-09-28T03:06:30.693Z,99705.06
2022-09-28T03:09:03.145Z,99711.16
2022-09-28T03:11:45.829Z,99709.56
2022-09-28T03:14:13.314Z,99710.59
2022-09-28T03:16:44.362Z,99712.41
2022-09-28T03:19:16.085Z,99712.56
2022-09-28T03:21:42.483Z,99716.16
2022-09-28T03:24:11.020Z,99715.44
2022-09-28T03:26:38.731Z,99718.25
2022-09-28T03:29:05.598Z,99715.06
2022-09-28T03:31:32.221Z,99721.03
2022-09-28T03:33:58.659Z,99716.72
2022-09-28T03:36:25.158Z,99719.28
2022-09-28T03:38:53.335Z,99707.19
2022-09-28T03:41:19.849Z,99715.72
2022-09-28T03:43:46.246Z,99714.94
2022-09-28T03:46:12.695Z,99714.13
2022-09-28T03:48:39.676Z,99715.88
2022-09-28T03:51:09.621Z,99716.81
2022-09-28T03:53:36.451Z,99715.13
2022-09-28T03:56:08.176Z,99706.63
2022-09-28T03:58:34.803Z,99710.19
2022-09-28T04:01:03.436Z,99701.78
2022-09-28T04:03:30.194Z,99705.34
2022-09-28T04:05:56.945Z,99701.28
2022-09-28T04:08:23.383Z,99698.94
2022-09-28T04:10:49.811Z,99704.16
2022-09-28T04:13:16.453Z,99704.34
2022-09-28T04:15:43.753Z,99698.59
2022-09-28T04:18:12.551Z,99704.75
2022-09-28T04:20:41.464Z,99706.56
2022-09-28T04:23:07.951Z,99715.38
2022-09-28T04:25:34.333Z,99716.47
2022-09-28T04:28:19.735Z,99716.63
2022-09-28T04:30:47.504Z,99720.19
2022-09-28T04:33:14.042Z,99719.50
2022-09-28T04:35:40.538Z,99707.53
2022-09-28T04:38:06.984Z,99710.94
2022-09-28T04:40:33.522Z,99716.19
2022-09-28T04:42:59.932Z,99714.50
2022-09-28T04:45:26.958Z,99714.66
2022-09-28T04:47:53.797Z,99717.34
2022-09-28T04:50:20.567Z,99716.50
2022-09-28T04:52:47.093Z,99714.75
2022-09-28T04:55:14.418Z,99718.31
2022-09-28T04:57:41.247Z,99716.66
2022-09-28T05:00:09.043Z,99724.47
2022-09-28T05:02:35.580Z,99721.97
2022-09-28T05:05:02.166Z,99718.63
2022-09-28T05:07:29.346Z,99720.53
2022-09-28T05:09:55.995Z,99721.50
2022-09-28T05:12:22.416Z,99729.34
2022-09-28T05:14:48.883Z,99732.03
2022-09-28T05:17:15.376Z,99726.91
2022-09-28T05:19:41.802Z,99726.09
2022-09-28T05:22:13.927Z,99723.50
2022-09-28T05:24:40.834Z,99722.72
2022-09-28T05:27:07.302Z,99728.91
2022-09-28T05:29:33.726Z,99726.38
2022-09-28T05:32:01.617Z,99723.03
2022-09-28T05:34:28.237Z,99730.88
2022-09-28T05:36:54.746Z,99725.84
2022-09-28T05:39:21.154Z,99723.28
2022-09-28T05:41:47.562Z,99739.59
2022-09-28T05:44:14.036Z,99736.19
2022-09-28T05:46:40.544Z,99734.50
2022-09-28T05:49:06.937Z,99735.34
2022-09-28T05:51:33.341Z,99738.59
2022-09-28T05:54:05.363Z,99740.38
2022-09-28T05:56:32.869Z,99739.53
2022-09-28T05:58:59.279Z,99741.19
2022-09-28T06:01:25.814Z,99745.44
2022-09-28T06:03:52.256Z,99743.63
2022-09-28T06:06:18.746Z,99747.81
2022-09-28T06:08:46.375Z,99744.00
2022-09-28T06:11:12.896Z,99737.72
2022-09-28T06:13:42.535Z,99743.22
2022-09-28T06:16:14.236Z,99736.91
2022-09-28T06:18:41.436Z,99744.13
2022-09-28T06:21:10.880Z,99744.41
2022-09-28T06:23:40.316Z,99744.78
2022-09-28T06:26:06.955Z,99751.13
2022-09-28T06:28:33.448Z,99744.78
2022-09-28T06:31:00.909Z,99751.28
2022-09-28T06:33:27.557Z,99756.19
2022-09-28T06:35:53.959Z,99753.22
2022-09-28T06:38:20.348Z,99751.09
2022-09-28T06:40:46.884Z,99757.63
2022-09-28T06:43:17.773Z,99752.22
2022-09-28T06:45:50.962Z,99762.28
2022-09-28T06:48:17.547Z,99766.22
2022-09-28T06:50:44.997Z,99765.81
2022-09-28T06:53:16.465Z,99763.63
2022-09-28T06:55:46.028Z,99761.47
2022-09-28T06:58:15.161Z,99765.28
2022-09-28T07:00:41.714Z,99763.00
2022-09-28T07:03:12.058Z,99763.50
2022-09-28T07:05:43.339Z,99770.09
2022-09-28T07:08:09.856Z,99765.41
2022-09-28T07:10:40.684Z,99770.91
2022-09-28T07:13:09.631Z,99780.69
2022-09-28T07:15:41.061Z,99777.59
2022-09-28T07:18:08.087Z,99780.59
2022-09-28T07:20:49.345Z,99780.84
2022-09-28T07:23:20.016Z,99783.66
2022-09-28T07:25:47.951Z,99799.59
2022-09-28T07:28:15.458Z,99795.69
2022-09-28T07:30:43.249Z,99797.03
2022-09-28T07:33:12.631Z,99799.16
2022-09-28T07:35:39.230Z,99801.09
2022-09-28T07:38:07.596Z,99801.38
2022-09-28T07:40:53.914Z,99805.44
2022-09-28T07:43:21.428Z,99804.25
2022-09-28T07:45:49.528Z,99804.53
2022-09-28T07:48:17.270Z,99804.88
2022-09-28T07:50:51.822Z,99808.66
2022-09-28T07:53:19.333Z,99809.16
2022-09-28T07:55:56.536Z,99816.56
2022-09-28T07:58:23.325Z,99811.06
2022-09-28T08:00:50.355Z,99807.91
2022-09-28T08:03:18.626Z,99817.03
2022-09-28T08:05:46.921Z,99812.28
2022-09-28T08:08:13.832Z,99813.38
2022-09-28T08:10:46.498Z,99822.22
2022-09-28T08:13:15.118Z,99818.41
2022-09-28T08:15:42.221Z,99824.16
2022-09-28T08:18:08.705Z,99824.50
2022-09-28T08:20:53.595Z,99827.41
2022-09-28T08:23:20.784Z,99830.88
2022-09-28T08:25:51.025Z,99828.69
2022-09-28T08:28:17.864Z,99828.09
2022-09-28T08:30:45.662Z,99839.75
2022-09-28T08:33:23.400Z,99826.53
2022-09-28T08:35:57.947Z,99832.69
2022-09-28T08:38:25.580Z,99841.75
2022-09-28T08:41:16.562Z,99838.63
2022-09-28T08:44:24.042Z,99838.94
2022-09-28T08:47:36.925Z,99844.56
2022-09-28T08:50:05.985Z,99844.84
2022-09-28T08:52:38.761Z,99838.41
2022-09-28T08:55:34.405Z,99856.00
2022-09-28T08:58:26.105Z,99859.00
2022-09-28T09:00:54.187Z,99857.56
2022-09-28T09:03:32.867Z,99856.19
2022-09-28T09:06:18.602Z,99855.13
2022-09-28T09:09:08.068Z,99854.09
2022-09-28T09:12:00.804Z,99858.03
2022-09-28T09:14:33.138Z,99857.94
2022-09-28T09:17:21.653Z,99863.63
2022-09-28T09:20:03.427Z,99867.75
2022-09-28T09:22:40.739Z,99866.81
2022-09-28T09:25:25.969Z,99877.19
2022-09-28T09:28:15.772Z,99875.25
2022-09-28T09:31:05.415Z,99881.66
2022-09-28T09:33:41.947Z,99882.66
2022-09-28T09:36:22.476Z,99886.03
2022-09-28T09:39:09.970Z,99874.78
2022-09-28T09:41:46.718Z,99875.66
2022-09-28T09:44:48.839Z,99879.25
2022-09-28T09:47:23.974Z,99880.91
2022-09-28T09:49:55.577Z,99885.81
2022-09-28T09:52:48.956Z,99884.13
2022-09-28T09:55:30.128Z,99880.59
2022-09-28T09:58:18.579Z,99878.97
2022-09-28T10:00:48.449Z,99883.03
2022-09-28T10:03:30.723Z,99873.31
2022-09-28T10:06:21.989Z,99869.28
2022-09-28T10:08:52.178Z,99875.56
2022-09-28T10:11:27.220Z,99872.84
2022-09-28T10:13:54.027Z,99872.72
2022-09-28T10:16:20.628Z,99871.53
2022-09-28T10:18:49.698Z,99864.75
2022-09-28T10:21:20.172Z,99864.84
2022-09-28T10:23:57.111Z,99862.28
2022-09-28T10:26:36.117Z,99870.91
2022-09-28T10:29:05.506Z,99876.19
2022-09-28T10:31:43.937Z,99873.84
2022-09-28T10:34:15.526Z,99880.78
2022-09-28T10:36:52.865Z,99875.25
2022-09-28T10:39:25.779Z,99878.06
2022-09-28T10:41:52.463Z,99874.00
2022-09-28T10:44:21.329Z,99863.91
2022-09-28T10:46:56.808Z,99866.09
2022-09-28T10:49:24.310Z,99875.13
2022-09-28T10:51:58.834Z,99880.28
2022-09-28T10:54:28.349Z,99879.97
2022-09-28T10:56:56.711Z,99878.97
2022-09-28T10:59:28.915Z,99869.91
2022-09-28T11:02:14.141Z,99874.94
2022-09-28T11:04:42.758Z,99871.50
2022-09-28T11:07:45.104Z,99868.44
2022-09-28T11:10:26.061Z,99871.50
2022-09-28T11:12:54.297Z,99875.09
2022-09-28T11:15:24.909Z,99872.34
2022-09-28T11:17:51.766Z,99871.91
2022-09-28T11:20:27.435Z,99862.75
2022-09-28T11:22:55.864Z,99868.38
2022-09-28T11:25:25.249Z,99868.03
2022-09-28T11:27:51.556Z,99863.72
2022-09-28T11:30:37.272Z,99863.88
2022-09-28T11:33:12.317Z,99861.47
2022-09-28T11:35:53.797Z,99861.66
2022-09-28T11:38:40.348Z,99858.50
2022-09-28T11:41:21.218Z,99862.78
2022-09-28T11:44:05.661Z,99858.09
2022-09-28T11:47:01.301Z,99862.53
2022-09-28T11:49:41.470Z,99857.94
2022-09-28T11:52:17.633Z,99860.13
2022-09-28T11:54:59.522Z,99863.53
2022-09-28T11:57:30.429Z,99862.59
2022-09-28T12:00:09.677Z,99864.88
2022-09-28T12:02:39.254Z,99863.19
2022-09-28T12:05:15.946Z,99867.28
2022-09-28T12:07:51.003Z,99868.75
2022-09-28T12:10:36.959Z,99871.91
2022-09-28T12:13:13.881Z,99871.63
2022-09-28T12:16:20.024Z,99874.81
2022-09-28T12:18:49.805Z,99868.69
2022-09-28T12:21:32.260Z,99868.72
2022-09-28T12:24:12.335Z,99874.56
2022-09-28T12:26:38.668Z,99885.38
2022-09-28T12:29:36.474Z,99893.75
2022-09-28T12:32:12.865Z,99894.19
2022-09-28T12:34:42.187Z,99887.94
2022-09-28T12:37:23.080Z,99893.28
2022-09-28T12:40:00.208Z,99898.75
2022-09-28T12:42:35.914Z,99907.59
2022-09-28T12:45:21.773Z,99908.69
2022-09-28T12:48:15.121Z,99906.28
2022-09-28T12:51:01.866Z,99910.03
2022-09-28T12:53:52.933Z,99909.50
2022-09-28T12:56:36.752Z,99915.41
2022-09-28T12:59:18.726Z,99908.84
2022-09-28T13:01:56.089Z,99910.63
2022-09-28T13:04:45.281Z,99906.47
2022-09-28T13:07:30.208Z,99902.56
2022-09-28T13:10:05.639Z,99901.06
2022-09-28T13:12:44.907Z,99902.38
2022-09-28T13:15:36.120Z,99900.59
2022-09-28T13:18:19.197Z,99893.41
2022-09-28T13:21:26.222Z,99896.25
2022-09-28T13:24:08.764Z,99894.69
2022-09-28T13:26:46.699Z,99900.28
2022-09-28T13:29:16.793Z,99907.34
2022-09-28T13:32:04.114Z,99904.63
2022-09-28T13:34:36.312Z,99909.41
2022-09-28T13:37:25.485Z,99912.03
2022-09-28T13:39:55.152Z,99908.59
2022-09-28T13:42:41.599Z,99914.06
2022-09-28T13:45:24.511Z,99911.19
2022-09-28T13:48:05.302Z,99911.53
2022-09-28T13:51:06.399Z,99909.00
2022-09-28T13:53:39.632Z,99900.94
2022-09-28T13:56:15.336Z,99899.31
2022-09-28T13:59:03.103Z,99898.44
2022-09-28T14:01:42.624Z,99891.44
2022-09-28T14:04:21.843Z,99889.84
2022-09-28T14:06:57.565Z,99901.44
2022-09-28T14:09:40.943Z,99895.28
2022-09-28T14:12:35.117Z,99903.00
2022-09-28T14:15:03.502Z,99898.16
2022-09-28T14:17:32.893Z,99904.38
2022-09-28T14:20:08.748Z,99915.59
2022-09-28T14:22:47.984Z,99911.75
2022-09-28T14:25:35.991Z,99915.25
2022-09-28T14:28:20.630Z,99913.03
2022-09-28T14:30:58.247Z,99914.00
2022-09-28T14:33:30.769Z,99920.22
2022-09-28T14:36:04.669Z,99930.09
2022-09-28T14:39:02.822Z,99926.97
2022-09-28T14:41:34.884Z,99930.91
2022-09-28T14:44:22.197Z,99940.16
2022-09-28T14:46:48.705Z,99935.66
2022-09-28T14:49:19.407Z,99944.22
2022-09-28T14:52:02.135Z,99935.19
2022-09-28T14:54:39.141Z,99921.53
2022-09-28T14:57:15.266Z,99928.88
2022-09-28T14:59:43.875Z,99935.88
2022-09-28T15:02:17.142Z,99934.41
2022-09-28T15:05:00.173Z,99944.47
2022-09-28T15:07:45.418Z,99946.84
2022-09-28T15:10:31.371Z,99948.09
2022-09-28T15:13:04.204Z,99952.00
2022-09-28T15:15:41.400Z,99957.00
2022-09-28T15:18:34.258Z,99957.00
2022-09-28T15:21:01.228Z,99957.94
2022-09-28T15:23:35.142Z,99955.75
2022-09-28T15:26:04.340Z,99957.69
2022-09-28T15:28:30.829Z,99961.56
2022-09-28T15:31:02.165Z,99961.06
2022-09-28T15:33:47.304Z,99954.91
2022-09-28T15:36:19.741Z,99957.38
2022-09-28T15:39:13.963Z,99954.31
2022-09-28T15:41:43.553Z,99958.31
2022-09-28T15:44:12.734Z,99961.97
2022-09-28T15:46:42.398Z,99964.06
2022-09-28T15:49:22.957Z,99963.44
2022-09-28T15:51:53.298Z,99968.28
2022-09-28T15:54:27.506Z,99961.41
2022-09-28T15:56:59.836Z,99963.78
2022-09-28T15:59:34.805Z,99962.53
2022-09-28T16:02:16.592Z,99966.56
2022-09-28T16:04:48.164Z,99964.41
2022-09-28T16:07:20.236Z,99959.09
2022-09-28T16:10:05.484Z,99967.53
2022-09-28T16:12:38.024Z,99962.31
2022-09-28T16:15:07.570Z,99959.47
2022-09-28T16:17:35.321Z,99961.22
2022-09-28T16:20:17.389Z,99961.00
2022-09-28T16:22:43.895Z,99961.13
2022-09-28T16:25:19.572Z,99962.34
2022-09-28T16:27:46.192Z,99956.91
2022-09-28T16:30:24.980Z,99966.06
2022-09-28T16:33:02.032Z,99962.72
2022-09-28T16:35:40.487Z,99964.06
2022-09-28T16:38:14.961Z,99968.22
2022-09-28T16:40:44.402Z,99969.69
2022-09-28T16:43:19.198Z,99967.75
2022-09-28T16:45:45.874Z,99979.97
2022-09-28T16:48:21.622Z,99980.13
2022-09-28T16:50:48.110Z,99980.19
2022-09-28T16:53:35.235Z,99979.00
2022-09-28T16:56:03.369Z,99979.94
2022-09-28T16:58:31.256Z,99986.56
2022-09-28T17:00:59.046Z,99993.13
2022-09-28T17:03:26.848Z,99993.47
2022-09-28T17:05:55.058Z,99996.44
2022-09-28T17:08:23.988Z,99994.03
2022-09-28T17:11:15.929Z,99995.22
2022-09-28T17:13:41.192Z,100001.78
2022-09-28T17:16:17.945Z,100004.09
2022-09-28T17:18:46.019Z,100004.53
2022-09-28T17:21:18.527Z,100003.19
2022-09-28T17:23:46.702Z,100008.84
2022-09-28T17:26:30.975Z,100013.44
2022-09-28T17:28:59.422Z,100014.69
2022-09-28T17:31:26.537Z,100009.06
2022-09-28T17:33:54.195Z,100018.97
2022-09-28T17:36:21.536Z,100014.09
2022-09-28T17:38:49.127Z,100017.03
2022-09-28T17:41:20.414Z,100023.25
2022-09-28T17:43:47.607Z,100021.69
2022-09-28T17:46:45.879Z,100016.81
2022-09-28T17:49:13.000Z,100019.63
2022-09-28T17:51:39.486Z,100017.31
2022-09-28T17:54:07.970Z,100017.63
2022-09-28T17:56:35.344Z,100020.56
2022-09-28T17:59:05.004Z,100020.22
2022-09-28T18:01:34.692Z,100017.94
2022-09-28T18:04:06.211Z,100022.50
2022-09-28T18:06:37.001Z,100023.72
2022-09-28T18:09:04.415Z,100030.06
2022-09-28T18:11:32.899Z,100028.69
2022-09-28T18:13:59.373Z,100025.47
2022-09-28T18:16:28.010Z,100030.22
2022-09-28T18:18:54.834Z,100035.63
2022-09-28T18:21:21.267Z,100031.50
2022-09-28T18:23:47.729Z,100033.47
2022-09-28T18:26:15.650Z,100025.00
2022-09-28T18:28:42.482Z,100027.69
2022-09-28T18:31:10.611Z,100035.72
2022-09-28T18:33:37.831Z,100031.44
2022-09-28T18:36:05.810Z,100034.25
2022-09-28T18:38:34.585Z,100034.31
2022-09-28T18:41:14.387Z,100039.72
2022-09-28T18:43:41.099Z,100040.78
2022-09-28T18:46:11.388Z,100038.25
2022-09-28T18:48:38.438Z,100038.38
2022-09-28T18:51:09.567Z,100037.44
2022-09-28T18:53:36.739Z,100040.13
2022-09-28T18:56:13.000Z,100039.38
2022-09-28T18:58:41.447Z,100043.00
2022-09-28T19:01:28.858Z,100034.50
2022-09-28T19:03:59.393Z,100035.50
2022-09-28T19:06:25.800Z,100037.28
2022-09-28T19:08:54.338Z,100036.53
2022-09-28T19:11:21.161Z,100039.25
2022-09-28T19:13:47.576Z,100026.44
2022-09-28T19:16:20.808Z,100036.00
2022-09-28T19:18:48.307Z,100036.00
2022-09-28T19:21:15.321Z,100032.66
2022-09-28T19:23:48.949Z,100031.00
2022-09-28T19:26:18.852Z,100039.72
2022-09-28T19:28:45.243Z,100038.16
2022-09-28T19:31:12.368Z,100036.59
2022-09-28T19:33:40.202Z,100040.84
2022-09-28T19:36:09.321Z,100037.53
2022-09-28T19:38:37.611Z,100043.56
2022-09-28T19:41:39.062Z,100050.59
2022-09-28T19:44:13.089Z,100048.13
2022-09-28T19:46:40.626Z,100056.00
2022-09-28T19:49:17.589Z,100050.97
2022-09-28T19:52:11.002Z,100053.69
2022-09-28T19:54:36.327Z,100059.06
2022-09-28T19:57:08.370Z,100063.44
2022-09-28T19:59:36.832Z,100054.06
2022-09-28T20:02:04.574Z,100059.44
2022-09-28T20:04:31.090Z,100062.25
2022-09-28T20:06:57.746Z,100062.34
2022-09-28T20:09:24.148Z,100069.50
2022-09-28T20:11:51.874Z,100073.13
2022-09-28T20:14:18.703Z,100083.69
2022-09-28T20:16:46.253Z,100071.81
2022-09-28T20:19:12.957Z,100073.66
2022-09-28T20:21:39.334Z,100077.28
2022-09-28T20:24:06.139Z,100086.19
2022-09-28T20:26:37.678Z,100081.19
2022-09-28T20:29:06.662Z,100088.25
2022-09-28T20:31:36.299Z,100080.72
2022-09-28T20:34:04.365Z,100085.25
2022-09-28T20:36:33.861Z,100085.63
2022-09-28T20:39:04.228Z,100086.72
2022-09-28T20:41:35.655Z,100081.63
2022-09-28T20:44:14.276Z,100090.50
2022-09-28T20:46:40.938Z,100091.63
2022-09-28T20:49:07.721Z,100093.50
2022-09-28T20:51:34.335Z,100087.66
2022-09-28T20:54:00.767Z,100098.22
2022-09-28T20:56:30.479Z,100100.03
2022-09-28T20:58:57.421Z,100094.19
2022-09-28T21:01:26.008Z,100096.13
2022-09-28T21:03:54.876Z,100097.91
2022-09-28T21:06:24.295Z,100104.09
2022-09-28T21:08:51.091Z,100100.91
2022-09-28T21:11:19.679Z,100103.59
2022-09-28T21:13:46.810Z,100096.91
2022-09-28T21:16:15.550Z,100097.09
2022-09-28T21:18:42.600Z,100106.69
2022-09-28T21:21:13.988Z,100099.94
2022-09-28T21:23:40.675Z,100106.16
2022-09-28T21:26:10.328Z,100108.81
2022-09-28T21:28:37.823Z,100112.34
2022-09-28T21:31:10.777Z,100113.28
2022-09-28T21:33:37.898Z,100111.56
2022-09-28T21:36:06.868Z,100111.69
2022-09-28T21:38:34.255Z,100112.69
2022-09-28T21:41:01.236Z,100118.88
2022-09-28T21:43:30.333Z,100114.72
2022-09-28T21:45:58.104Z,100113.00
2022-09-28T21:48:27.027Z,100119.91
2022-09-28T21:51:05.591Z,100126.91
2022-09-28T21:53:34.535Z,100125.31
2022-09-28T21:56:02.298Z,100126.25
2022-09-28T21:58:30.870Z,100119.47
2022-09-28T22:01:05.826Z,100120.41
2022-09-28T22:03:35.275Z,100119.63
2022-09-28T22:06:02.625Z,100124.16
2022-09-28T22:08:29.037Z,100124.44
2022-09-28T22:11:02.612Z,100125.44
2022-09-28T22:13:30.956Z,100116.16
2022-09-28T22:15:58.786Z,100123.16
2022-09-28T22:18:30.050Z,100126.94
2022-09-28T22:21:00.295Z,100126.34
2022-09-28T22:23:27.981Z,100125.78
2022-09-28T22:26:09.724Z,100129.44
2022-09-28T22:28:37.047Z,100125.44
2022-09-28T22:31:04.087Z,100138.47
2022-09-28T22:33:30.552Z,100135.28
2022-09-28T22:35:56.948Z,100132.88
2022-09-28T22:38:24.804Z,100139.03
2022-09-28T22:40:54.567Z,100146.97
2022-09-28T22:43:23.446Z,100142.78
2022-09-28T22:45:50.098Z,100144.63
2022-09-28T22:48:16.569Z,100146.56
2022-09-28T22:50:52.174Z,100143.97
2022-09-28T22:53:19.320Z,100146.63
2022-09-28T22:55:45.880Z,100144.19
2022-09-28T22:58:12.440Z,100146.88
2022-09-28T23:00:39.165Z,100142.69
2022-09-28T23:03:05.648Z,100141.06
2022-09-28T23:05:32.122Z,100140.34
2022-09-28T23:07:58.558Z,100144.84
2022-09-28T23:10:24.960Z,100145.81
2022-09-28T23:12:53.730Z,100148.56
2022-09-28T23:15:21.605Z,100147.06
2022-09-28T23:17:52.708Z,100141.22
2022-09-28T23:20:23.740Z,100143.03
2022-09-28T23:22:50.704Z,100146.69
2022-09-28T23:25:18.547Z,100158.13
2022-09-28T23:27:46.617Z,100153.94
2022-09-28T23:30:14.150Z,100157.50
2022-09-28T23:32:40.573Z,100153.31
2022-09-28T23:35:07.598Z,100160.34
2022-09-28T23:37:34.136Z,100156.16
2022-09-28T23:40:00.888Z,100163.22
2022-09-28T23:42:27.337Z,100157.28
2022-09-28T23:44:53.760Z,100159.03
2022-09-28T23:47:20.233Z,100164.22
2022-09-28T23:49:46.676Z,100148.78
2022-09-28T23:52:13.101Z,100148.00
2022-09-28T23:54:39.743Z,100155.75
2022-09-28T23:57:06.119Z,100158.44
2022-09-28T23:59:32.522Z,100149.91
